Terminal Aerodrome Forecast
Issued by NWS

Home | Current Version | Previous Version | Text Only | Print | Product List | Glossary On
Versions: 1 2 3 4 5 6 7 8 9 10 11 12 13 14 15 16 17
000
FTUS41 KCAR 011738
TAFHUL
TAF
KHUL 011738Z 0118/0218 23009KT P6SM -SHRA SCT025 BKN045
      TEMPO 0118/0121 27015G25KT 3SM -TSRA BKN025CB
     FM012200 25007KT P6SM BKN110
     FM020000 26006KT P6SM BKN250=

USA.gov is the U.S. government's official web portal to all federal, state and local government web resources and services.